sensor_id;sensor_type;location;lat;lon;timestamp;P1;durP1;ratioP1;P2;durP2;ratioP2
3443;SDS011;1736;52.068;6.968;2023-03-29T00:01:15;8.90;;;6.40;;
3443;SDS011;1736;52.068;6.968;2023-03-29T00:03:42;14.83;;;6.60;;
3443;SDS011;1736;52.068;6.968;2023-03-29T00:06:10;11.13;;;6.17;;
3443;SDS011;1736;52.068;6.968;2023-03-29T00:08:39;9.00;;;6.50;;
3443;SDS011;1736;52.068;6.968;2023-03-29T00:11:06;10.00;;;6.00;;
3443;SDS011;1736;52.068;6.968;2023-03-29T00:13:33;9.53;;;7.10;;
3443;SDS011;1736;52.068;6.968;2023-03-29T00:16:01;10.30;;;7.20;;
3443;SDS011;1736;52.068;6.968;2023-03-29T00:18:28;13.30;;;6.70;;
3443;SDS011;1736;52.068;6.968;2023-03-29T00:20:55;9.67;;;6.57;;
3443;SDS011;1736;52.068;6.968;2023-03-29T00:23:21;10.37;;;7.23;;
3443;SDS011;1736;52.068;6.968;2023-03-29T00:25:49;12.20;;;7.63;;
3443;SDS011;1736;52.068;6.968;2023-03-29T00:28:15;12.23;;;6.87;;
3443;SDS011;1736;52.068;6.968;2023-03-29T00:30:42;10.43;;;7.10;;
3443;SDS011;1736;52.068;6.968;2023-03-29T00:33:10;12.10;;;7.93;;
3443;SDS011;1736;52.068;6.968;2023-03-29T00:35:36;10.37;;;6.70;;
3443;SDS011;1736;52.068;6.968;2023-03-29T00:38:03;10.70;;;7.70;;
3443;SDS011;1736;52.068;6.968;2023-03-29T00:40:30;10.90;;;7.17;;
3443;SDS011;1736;52.068;6.968;2023-03-29T00:42:56;10.03;;;7.77;;
3443;SDS011;1736;52.068;6.968;2023-03-29T00:45:24;9.73;;;7.30;;
3443;SDS011;1736;52.068;6.968;2023-03-29T00:47:55;12.03;;;7.03;;
3443;SDS011;1736;52.068;6.968;2023-03-29T00:50:26;12.00;;;7.53;;
3443;SDS011;1736;52.068;6.968;2023-03-29T00:52:56;13.60;;;7.00;;
3443;SDS011;1736;52.068;6.968;2023-03-29T00:55:28;11.00;;;7.47;;
3443;SDS011;1736;52.068;6.968;2023-03-29T00:57:57;9.57;;;6.90;;
3443;SDS011;1736;52.068;6.968;2023-03-29T01:00:25;11.50;;;7.63;;
3443;SDS011;1736;52.068;6.968;2023-03-29T01:02:56;13.57;;;7.53;;
3443;SDS011;1736;52.068;6.968;2023-03-29T01:05:28;16.27;;;8.03;;
3443;SDS011;1736;52.068;6.968;2023-03-29T01:08:02;10.13;;;7.23;;
3443;SDS011;1736;52.068;6.968;2023-03-29T01:10:32;9.43;;;6.27;;
3443;SDS011;1736;52.068;6.968;2023-03-29T01:13:05;11.57;;;7.10;;
3443;SDS011;1736;52.068;6.968;2023-03-29T01:15:35;14.33;;;6.80;;
3443;SDS011;1736;52.068;6.968;2023-03-29T01:18:03;8.20;;;6.63;;
3443;SDS011;1736;52.068;6.968;2023-03-29T01:20:36;9.97;;;6.50;;
3443;SDS011;1736;52.068;6.968;2023-03-29T01:23:16;8.37;;;6.50;;
3443;SDS011;1736;52.068;6.968;2023-03-29T01:25:59;12.07;;;7.00;;
3443;SDS011;1736;52.068;6.968;2023-03-29T01:28:34;7.93;;;6.17;;
3443;SDS011;1736;52.068;6.968;2023-03-29T01:31:08;8.70;;;5.70;;
3443;SDS011;1736;52.068;6.968;2023-03-29T01:33:37;8.33;;;5.80;;
3443;SDS011;1736;52.068;6.968;2023-03-29T01:36:08;11.00;;;6.20;;
3443;SDS011;1736;52.068;6.968;2023-03-29T01:38:41;6.67;;;5.97;;
3443;SDS011;1736;52.068;6.968;2023-03-29T01:41:13;6.67;;;5.50;;
3443;SDS011;1736;52.068;6.968;2023-03-29T01:43:42;8.60;;;5.83;;
3443;SDS011;1736;52.068;6.968;2023-03-29T01:46:13;8.00;;;5.53;;
3443;SDS011;1736;52.068;6.968;2023-03-29T01:48:45;10.20;;;6.50;;
3443;SDS011;1736;52.068;6.968;2023-03-29T01:51:16;7.47;;;5.20;;
3443;SDS011;1736;52.068;6.968;2023-03-29T01:53:49;9.20;;;5.93;;
3443;SDS011;1736;52.068;6.968;2023-03-29T01:56:21;6.87;;;5.30;;
3443;SDS011;1736;52.068;6.968;2023-03-29T01:58:54;9.30;;;5.90;;
3443;SDS011;1736;52.068;6.968;2023-03-29T02:01:24;8.23;;;5.87;;
3443;SDS011;1736;52.068;6.968;2023-03-29T02:03:55;7.60;;;5.50;;
3443;SDS011;1736;52.068;6.968;2023-03-29T02:06:26;6.93;;;5.27;;
3443;SDS011;1736;52.068;6.968;2023-03-29T02:08:56;6.60;;;5.30;;
3443;SDS011;1736;52.068;6.968;2023-03-29T02:11:24;7.73;;;5.83;;
3443;SDS011;1736;52.068;6.968;2023-03-29T02:13:54;6.47;;;5.40;;
3443;SDS011;1736;52.068;6.968;2023-03-29T02:16:21;10.17;;;6.23;;
3443;SDS011;1736;52.068;6.968;2023-03-29T02:18:47;7.77;;;5.33;;
3443;SDS011;1736;52.068;6.968;2023-03-29T02:21:21;8.73;;;5.57;;
3443;SDS011;1736;52.068;6.968;2023-03-29T02:23:51;8.17;;;5.77;;
3443;SDS011;1736;52.068;6.968;2023-03-29T02:26:20;9.80;;;5.60;;
3443;SDS011;1736;52.068;6.968;2023-03-29T02:28:47;13.23;;;6.20;;
3443;SDS011;1736;52.068;6.968;2023-03-29T02:31:16;9.10;;;5.80;;
3443;SDS011;1736;52.068;6.968;2023-03-29T02:33:48;5.83;;;4.87;;
3443;SDS011;1736;52.068;6.968;2023-03-29T02:36:18;13.80;;;5.50;;
3443;SDS011;1736;52.068;6.968;2023-03-29T02:38:48;9.13;;;5.17;;
3443;SDS011;1736;52.068;6.968;2023-03-29T02:41:14;7.10;;;5.23;;
3443;SDS011;1736;52.068;6.968;2023-03-29T02:43:42;7.47;;;5.50;;
3443;SDS011;1736;52.068;6.968;2023-03-29T02:46:11;6.77;;;5.27;;
3443;SDS011;1736;52.068;6.968;2023-03-29T02:48:41;13.00;;;5.77;;
3443;SDS011;1736;52.068;6.968;2023-03-29T02:51:11;12.57;;;6.17;;
3443;SDS011;1736;52.068;6.968;2023-03-29T02:53:43;8.03;;;5.57;;
3443;SDS011;1736;52.068;6.968;2023-03-29T02:56:14;7.50;;;5.10;;
3443;SDS011;1736;52.068;6.968;2023-03-29T02:58:40;7.17;;;5.63;;
3443;SDS011;1736;52.068;6.968;2023-03-29T03:01:07;9.27;;;5.20;;
3443;SDS011;1736;52.068;6.968;2023-03-29T03:03:35;10.07;;;6.13;;
3443;SDS011;1736;52.068;6.968;2023-03-29T03:06:03;8.10;;;5.40;;
3443;SDS011;1736;52.068;6.968;2023-03-29T03:08:30;8.77;;;5.60;;
3443;SDS011;1736;52.068;6.968;2023-03-29T03:10:57;6.93;;;5.07;;
3443;SDS011;1736;52.068;6.968;2023-03-29T03:13:23;7.83;;;5.60;;
3443;SDS011;1736;52.068;6.968;2023-03-29T03:15:50;9.53;;;6.17;;
3443;SDS011;1736;52.068;6.968;2023-03-29T03:18:18;6.63;;;5.70;;
3443;SDS011;1736;52.068;6.968;2023-03-29T03:20:53;8.77;;;5.60;;
3443;SDS011;1736;52.068;6.968;2023-03-29T03:23:22;10.80;;;5.47;;
3443;SDS011;1736;52.068;6.968;2023-03-29T03:25:49;7.53;;;5.37;;
3443;SDS011;1736;52.068;6.968;2023-03-29T03:28:16;5.80;;;5.20;;
3443;SDS011;1736;52.068;6.968;2023-03-29T03:30:43;6.63;;;4.80;;
3443;SDS011;1736;52.068;6.968;2023-03-29T03:33:09;6.60;;;5.00;;
3443;SDS011;1736;52.068;6.968;2023-03-29T03:35:36;5.47;;;4.50;;
3443;SDS011;1736;52.068;6.968;2023-03-29T03:38:03;9.50;;;5.87;;
3443;SDS011;1736;52.068;6.968;2023-03-29T03:40:31;5.90;;;4.70;;
3443;SDS011;1736;52.068;6.968;2023-03-29T03:42:58;6.50;;;5.20;;
3443;SDS011;1736;52.068;6.968;2023-03-29T03:45:24;7.27;;;5.33;;
3443;SDS011;1736;52.068;6.968;2023-03-29T03:47:51;6.13;;;5.53;;
3443;SDS011;1736;52.068;6.968;2023-03-29T03:50:17;6.60;;;5.13;;
3443;SDS011;1736;52.068;6.968;2023-03-29T03:52:44;7.13;;;5.43;;
3443;SDS011;1736;52.068;6.968;2023-03-29T03:55:11;7.23;;;5.67;;
3443;SDS011;1736;52.068;6.968;2023-03-29T03:57:39;7.10;;;5.13;;
3443;SDS011;1736;52.068;6.968;2023-03-29T04:00:06;7.07;;;4.87;;
3443;SDS011;1736;52.068;6.968;2023-03-29T04:02:43;7.63;;;5.40;;
3443;SDS011;1736;52.068;6.968;2023-03-29T04:05:10;7.00;;;5.10;;
3443;SDS011;1736;52.068;6.968;2023-03-29T04:07:37;7.90;;;5.70;;
3443;SDS011;1736;52.068;6.968;2023-03-29T04:10:04;9.57;;;5.20;;
3443;SDS011;1736;52.068;6.968;2023-03-29T04:12:33;7.73;;;5.33;;
3443;SDS011;1736;52.068;6.968;2023-03-29T04:15:01;12.10;;;5.90;;
3443;SDS011;1736;52.068;6.968;2023-03-29T04:17:27;6.73;;;4.93;;
3443;SDS011;1736;52.068;6.968;2023-03-29T04:19:54;6.47;;;5.13;;
3443;SDS011;1736;52.068;6.968;2023-03-29T04:22:21;8.63;;;5.67;;
3443;SDS011;1736;52.068;6.968;2023-03-29T04:24:49;7.20;;;5.63;;
3443;SDS011;1736;52.068;6.968;2023-03-29T04:27:15;8.23;;;5.90;;
3443;SDS011;1736;52.068;6.968;2023-03-29T04:29:42;8.80;;;5.70;;
3443;SDS011;1736;52.068;6.968;2023-03-29T04:32:10;8.80;;;5.90;;
3443;SDS011;1736;52.068;6.968;2023-03-29T04:34:37;13.07;;;7.23;;
3443;SDS011;1736;52.068;6.968;2023-03-29T04:37:04;9.80;;;6.50;;
3443;SDS011;1736;52.068;6.968;2023-03-29T04:39:34;9.70;;;7.07;;
3443;SDS011;1736;52.068;6.968;2023-03-29T04:42:00;8.70;;;6.47;;
3443;SDS011;1736;52.068;6.968;2023-03-29T04:44:28;10.57;;;6.73;;
3443;SDS011;1736;52.068;6.968;2023-03-29T04:46:57;7.97;;;6.47;;
3443;SDS011;1736;52.068;6.968;2023-03-29T04:49:25;11.77;;;6.60;;
3443;SDS011;1736;52.068;6.968;2023-03-29T04:51:51;24.50;;;7.27;;
3443;SDS011;1736;52.068;6.968;2023-03-29T04:54:18;9.87;;;7.00;;
3443;SDS011;1736;52.068;6.968;2023-03-29T04:56:45;11.10;;;7.33;;
3443;SDS011;1736;52.068;6.968;2023-03-29T04:59:12;13.10;;;7.13;;
3443;SDS011;1736;52.068;6.968;2023-03-29T05:01:38;11.23;;;7.37;;
3443;SDS011;1736;52.068;6.968;2023-03-29T05:04:04;13.07;;;7.30;;
3443;SDS011;1736;52.068;6.968;2023-03-29T05:06:32;11.60;;;7.80;;
3443;SDS011;1736;52.068;6.968;2023-03-29T05:08:59;9.37;;;7.00;;
3443;SDS011;1736;52.068;6.968;2023-03-29T05:11:26;15.60;;;8.30;;
3443;SDS011;1736;52.068;6.968;2023-03-29T05:13:53;13.80;;;8.67;;
3443;SDS011;1736;52.068;6.968;2023-03-29T05:16:22;12.90;;;8.03;;
3443;SDS011;1736;52.068;6.968;2023-03-29T05:18:50;10.83;;;8.13;;
3443;SDS011;1736;52.068;6.968;2023-03-29T05:21:16;10.53;;;8.00;;
3443;SDS011;1736;52.068;6.968;2023-03-29T05:23:45;11.07;;;7.23;;
3443;SDS011;1736;52.068;6.968;2023-03-29T05:26:12;11.73;;;8.23;;
3443;SDS011;1736;52.068;6.968;2023-03-29T05:28:39;11.20;;;7.73;;
3443;SDS011;1736;52.068;6.968;2023-03-29T05:31:05;12.07;;;7.50;;
3443;SDS011;1736;52.068;6.968;2023-03-29T05:33:32;16.37;;;7.80;;
3443;SDS011;1736;52.068;6.968;2023-03-29T05:35:59;14.97;;;8.13;;
3443;SDS011;1736;52.068;6.968;2023-03-29T05:38:26;11.33;;;7.20;;
3443;SDS011;1736;52.068;6.968;2023-03-29T05:40:55;11.57;;;7.60;;
3443;SDS011;1736;52.068;6.968;2023-03-29T05:43:21;13.13;;;6.97;;
3443;SDS011;1736;52.068;6.968;2023-03-29T05:45:48;10.60;;;7.40;;
3443;SDS011;1736;52.068;6.968;2023-03-29T05:48:17;10.83;;;7.77;;
3443;SDS011;1736;52.068;6.968;2023-03-29T05:50:45;16.53;;;8.80;;
3443;SDS011;1736;52.068;6.968;2023-03-29T05:53:12;10.43;;;7.10;;
3443;SDS011;1736;52.068;6.968;2023-03-29T05:55:39;13.50;;;7.30;;
3443;SDS011;1736;52.068;6.968;2023-03-29T05:58:07;11.00;;;7.50;;
3443;SDS011;1736;52.068;6.968;2023-03-29T06:00:34;10.73;;;6.83;;
3443;SDS011;1736;52.068;6.968;2023-03-29T06:03:02;14.07;;;8.10;;
3443;SDS011;1736;52.068;6.968;2023-03-29T06:05:29;12.37;;;7.70;;
3443;SDS011;1736;52.068;6.968;2023-03-29T06:07:55;9.50;;;6.70;;
3443;SDS011;1736;52.068;6.968;2023-03-29T06:10:23;9.20;;;7.30;;
3443;SDS011;1736;52.068;6.968;2023-03-29T06:12:49;13.27;;;7.27;;
3443;SDS011;1736;52.068;6.968;2023-03-29T06:15:17;10.83;;;6.90;;
3443;SDS011;1736;52.068;6.968;2023-03-29T06:17:45;15.30;;;7.50;;
3443;SDS011;1736;52.068;6.968;2023-03-29T06:20:12;12.50;;;6.87;;
3443;SDS011;1736;52.068;6.968;2023-03-29T06:22:39;11.07;;;7.40;;
3443;SDS011;1736;52.068;6.968;2023-03-29T06:25:07;12.00;;;6.77;;
3443;SDS011;1736;52.068;6.968;2023-03-29T06:27:35;15.10;;;8.57;;
3443;SDS011;1736;52.068;6.968;2023-03-29T06:30:02;11.43;;;6.60;;
3443;SDS011;1736;52.068;6.968;2023-03-29T06:32:32;11.87;;;6.90;;
3443;SDS011;1736;52.068;6.968;2023-03-29T06:34:58;7.93;;;6.13;;
3443;SDS011;1736;52.068;6.968;2023-03-29T06:37:25;10.90;;;6.70;;
3443;SDS011;1736;52.068;6.968;2023-03-29T06:39:53;10.20;;;6.57;;
3443;SDS011;1736;52.068;6.968;2023-03-29T06:42:19;11.80;;;6.37;;
3443;SDS011;1736;52.068;6.968;2023-03-29T06:44:46;14.90;;;6.97;;
3443;SDS011;1736;52.068;6.968;2023-03-29T06:47:13;12.00;;;7.03;;
3443;SDS011;1736;52.068;6.968;2023-03-29T06:49:42;12.23;;;7.97;;
3443;SDS011;1736;52.068;6.968;2023-03-29T06:52:08;9.37;;;6.80;;
3443;SDS011;1736;52.068;6.968;2023-03-29T06:54:36;12.73;;;6.93;;
3443;SDS011;1736;52.068;6.968;2023-03-29T06:57:03;17.80;;;7.53;;
3443;SDS011;1736;52.068;6.968;2023-03-29T06:59:29;14.43;;;8.07;;
3443;SDS011;1736;52.068;6.968;2023-03-29T07:01:56;10.57;;;7.40;;
3443;SDS011;1736;52.068;6.968;2023-03-29T07:04:22;21.40;;;7.70;;
3443;SDS011;1736;52.068;6.968;2023-03-29T07:06:50;12.87;;;6.60;;
3443;SDS011;1736;52.068;6.968;2023-03-29T07:09:25;9.53;;;6.93;;
3443;SDS011;1736;52.068;6.968;2023-03-29T07:11:53;19.67;;;7.70;;
3443;SDS011;1736;52.068;6.968;2023-03-29T07:14:20;10.20;;;6.77;;
3443;SDS011;1736;52.068;6.968;2023-03-29T07:16:47;7.90;;;6.27;;
3443;SDS011;1736;52.068;6.968;2023-03-29T07:19:15;13.70;;;7.13;;
3443;SDS011;1736;52.068;6.968;2023-03-29T07:21:43;8.10;;;6.20;;
3443;SDS011;1736;52.068;6.968;2023-03-29T07:24:11;15.90;;;7.27;;
3443;SDS011;1736;52.068;6.968;2023-03-29T07:26:38;8.90;;;6.37;;
3443;SDS011;1736;52.068;6.968;2023-03-29T07:29:04;11.63;;;6.53;;
3443;SDS011;1736;52.068;6.968;2023-03-29T07:31:31;18.33;;;6.90;;
3443;SDS011;1736;52.068;6.968;2023-03-29T07:33:59;13.40;;;6.83;;
3443;SDS011;1736;52.068;6.968;2023-03-29T07:36:29;10.67;;;6.60;;
3443;SDS011;1736;52.068;6.968;2023-03-29T07:38:58;9.17;;;6.80;;
3443;SDS011;1736;52.068;6.968;2023-03-29T07:41:27;10.50;;;6.43;;
3443;SDS011;1736;52.068;6.968;2023-03-29T07:43:53;14.33;;;6.73;;
3443;SDS011;1736;52.068;6.968;2023-03-29T07:46:21;11.10;;;6.70;;
3443;SDS011;1736;52.068;6.968;2023-03-29T07:48:47;8.30;;;6.13;;
3443;SDS011;1736;52.068;6.968;2023-03-29T07:51:14;10.17;;;6.87;;
3443;SDS011;1736;52.068;6.968;2023-03-29T07:53:41;13.27;;;6.73;;
3443;SDS011;1736;52.068;6.968;2023-03-29T07:56:07;10.73;;;7.07;;
3443;SDS011;1736;52.068;6.968;2023-03-29T07:58:35;10.33;;;6.23;;
3443;SDS011;1736;52.068;6.968;2023-03-29T08:01:02;9.87;;;5.27;;
3443;SDS011;1736;52.068;6.968;2023-03-29T08:03:29;9.77;;;6.17;;
3443;SDS011;1736;52.068;6.968;2023-03-29T08:05:56;8.33;;;5.73;;
3443;SDS011;1736;52.068;6.968;2023-03-29T08:08:22;10.20;;;5.40;;
3443;SDS011;1736;52.068;6.968;2023-03-29T08:10:49;9.33;;;5.13;;
3443;SDS011;1736;52.068;6.968;2023-03-29T08:13:15;7.63;;;5.07;;
3443;SDS011;1736;52.068;6.968;2023-03-29T08:15:43;7.20;;;5.30;;
3443;SDS011;1736;52.068;6.968;2023-03-29T08:18:12;9.20;;;5.37;;
3443;SDS011;1736;52.068;6.968;2023-03-29T08:20:39;7.40;;;5.27;;
3443;SDS011;1736;52.068;6.968;2023-03-29T08:23:06;6.83;;;4.93;;
3443;SDS011;1736;52.068;6.968;2023-03-29T08:25:33;9.47;;;5.03;;
3443;SDS011;1736;52.068;6.968;2023-03-29T08:28:00;7.13;;;5.23;;
3443;SDS011;1736;52.068;6.968;2023-03-29T08:30:27;11.20;;;4.93;;
3443;SDS011;1736;52.068;6.968;2023-03-29T08:32:54;8.03;;;5.67;;
3443;SDS011;1736;52.068;6.968;2023-03-29T08:35:22;9.40;;;5.67;;
3443;SDS011;1736;52.068;6.968;2023-03-29T08:37:48;10.73;;;5.20;;
3443;SDS011;1736;52.068;6.968;2023-03-29T08:40:15;8.93;;;5.20;;
3443;SDS011;1736;52.068;6.968;2023-03-29T08:42:48;7.27;;;5.17;;
3443;SDS011;1736;52.068;6.968;2023-03-29T08:45:27;8.03;;;4.90;;
3443;SDS011;1736;52.068;6.968;2023-03-29T08:48:02;8.70;;;5.50;;
3443;SDS011;1736;52.068;6.968;2023-03-29T08:50:38;6.83;;;4.70;;
3443;SDS011;1736;52.068;6.968;2023-03-29T08:53:11;9.70;;;5.67;;
3443;SDS011;1736;52.068;6.968;2023-03-29T08:55:42;9.17;;;5.30;;
3443;SDS011;1736;52.068;6.968;2023-03-29T08:58:13;7.93;;;5.17;;
3443;SDS011;1736;52.068;6.968;2023-03-29T09:00:43;10.40;;;5.50;;
3443;SDS011;1736;52.068;6.968;2023-03-29T09:03:15;14.13;;;5.20;;
3443;SDS011;1736;52.068;6.968;2023-03-29T09:05:47;21.90;;;5.43;;
3443;SDS011;1736;52.068;6.968;2023-03-29T09:08:15;10.03;;;5.67;;
3443;SDS011;1736;52.068;6.968;2023-03-29T09:10:45;9.00;;;5.77;;
3443;SDS011;1736;52.068;6.968;2023-03-29T09:13:19;13.53;;;5.60;;
3443;SDS011;1736;52.068;6.968;2023-03-29T09:15:57;7.70;;;4.90;;
3443;SDS011;1736;52.068;6.968;2023-03-29T09:18:34;6.87;;;5.37;;
3443;SDS011;1736;52.068;6.968;2023-03-29T09:21:15;8.10;;;4.70;;
3443;SDS011;1736;52.068;6.968;2023-03-29T09:23:51;9.03;;;5.23;;
3443;SDS011;1736;52.068;6.968;2023-03-29T09:26:30;10.77;;;5.20;;
3443;SDS011;1736;52.068;6.968;2023-03-29T09:29:06;11.60;;;5.70;;
3443;SDS011;1736;52.068;6.968;2023-03-29T09:31:44;8.90;;;4.83;;
3443;SDS011;1736;52.068;6.968;2023-03-29T09:34:17;8.73;;;5.40;;
3443;SDS011;1736;52.068;6.968;2023-03-29T09:36:48;6.27;;;5.33;;
3443;SDS011;1736;52.068;6.968;2023-03-29T09:39:17;7.40;;;5.07;;
3443;SDS011;1736;52.068;6.968;2023-03-29T09:41:47;7.70;;;6.07;;
3443;SDS011;1736;52.068;6.968;2023-03-29T09:44:17;11.37;;;6.37;;
3443;SDS011;1736;52.068;6.968;2023-03-29T09:46:49;11.60;;;5.63;;
3443;SDS011;1736;52.068;6.968;2023-03-29T09:49:22;9.10;;;5.60;;
3443;SDS011;1736;52.068;6.968;2023-03-29T09:51:52;8.70;;;5.30;;
3443;SDS011;1736;52.068;6.968;2023-03-29T09:54:21;8.30;;;5.40;;
3443;SDS011;1736;52.068;6.968;2023-03-29T09:56:48;8.23;;;5.10;;
3443;SDS011;1736;52.068;6.968;2023-03-29T09:59:16;11.30;;;6.23;;
3443;SDS011;1736;52.068;6.968;2023-03-29T10:01:43;8.67;;;5.57;;
3443;SDS011;1736;52.068;6.968;2023-03-29T10:04:11;7.70;;;5.37;;
3443;SDS011;1736;52.068;6.968;2023-03-29T10:06:41;6.83;;;5.27;;
3443;SDS011;1736;52.068;6.968;2023-03-29T10:09:15;9.33;;;5.47;;
3443;SDS011;1736;52.068;6.968;2023-03-29T10:11:45;6.10;;;4.77;;
3443;SDS011;1736;52.068;6.968;2023-03-29T10:14:15;7.27;;;4.80;;
3443;SDS011;1736;52.068;6.968;2023-03-29T10:16:44;10.40;;;5.27;;
3443;SDS011;1736;52.068;6.968;2023-03-29T10:19:19;11.20;;;5.50;;
3443;SDS011;1736;52.068;6.968;2023-03-29T10:21:48;9.07;;;5.47;;
3443;SDS011;1736;52.068;6.968;2023-03-29T10:24:18;10.23;;;5.60;;
3443;SDS011;1736;52.068;6.968;2023-03-29T10:26:46;9.80;;;5.70;;
3443;SDS011;1736;52.068;6.968;2023-03-29T10:29:17;19.60;;;6.60;;
3443;SDS011;1736;52.068;6.968;2023-03-29T10:31:44;10.10;;;6.53;;
3443;SDS011;1736;52.068;6.968;2023-03-29T10:34:11;11.43;;;7.40;;
3443;SDS011;1736;52.068;6.968;2023-03-29T10:36:40;8.90;;;6.30;;
3443;SDS011;1736;52.068;6.968;2023-03-29T10:39:13;11.10;;;6.73;;
3443;SDS011;1736;52.068;6.968;2023-03-29T10:41:40;31.17;;;7.00;;
3443;SDS011;1736;52.068;6.968;2023-03-29T10:44:22;9.70;;;6.87;;
3443;SDS011;1736;52.068;6.968;2023-03-29T10:46:52;10.40;;;6.90;;
3443;SDS011;1736;52.068;6.968;2023-03-29T10:49:19;11.17;;;7.20;;
3443;SDS011;1736;52.068;6.968;2023-03-29T10:51:49;9.87;;;7.47;;
3443;SDS011;1736;52.068;6.968;2023-03-29T10:54:19;9.53;;;7.40;;
3443;SDS011;1736;52.068;6.968;2023-03-29T10:56:48;18.57;;;7.30;;
3443;SDS011;1736;52.068;6.968;2023-03-29T10:59:20;9.20;;;7.13;;
3443;SDS011;1736;52.068;6.968;2023-03-29T11:02:07;7.70;;;6.90;;
3443;SDS011;1736;52.068;6.968;2023-03-29T11:04:51;11.23;;;7.20;;
3443;SDS011;1736;52.068;6.968;2023-03-29T11:07:30;7.53;;;6.30;;
3443;SDS011;1736;52.068;6.968;2023-03-29T11:10:13;11.60;;;7.57;;
3443;SDS011;1736;52.068;6.968;2023-03-29T11:12:53;9.17;;;6.50;;
3443;SDS011;1736;52.068;6.968;2023-03-29T11:15:32;12.17;;;6.87;;
3443;SDS011;1736;52.068;6.968;2023-03-29T11:18:15;8.70;;;7.27;;
3443;SDS011;1736;52.068;6.968;2023-03-29T11:20:56;8.80;;;6.50;;
3443;SDS011;1736;52.068;6.968;2023-03-29T11:23:38;8.80;;;7.13;;
3443;SDS011;1736;52.068;6.968;2023-03-29T11:26:13;9.33;;;7.50;;
3443;SDS011;1736;52.068;6.968;2023-03-29T11:28:46;10.00;;;7.27;;
3443;SDS011;1736;52.068;6.968;2023-03-29T11:31:21;9.00;;;6.80;;
3443;SDS011;1736;52.068;6.968;2023-03-29T11:33:59;9.03;;;7.10;;
3443;SDS011;1736;52.068;6.968;2023-03-29T11:36:35;8.53;;;6.70;;
3443;SDS011;1736;52.068;6.968;2023-03-29T11:39:10;16.83;;;8.00;;
3443;SDS011;1736;52.068;6.968;2023-03-29T11:41:47;9.63;;;7.63;;
3443;SDS011;1736;52.068;6.968;2023-03-29T11:44:19;11.87;;;6.87;;
3443;SDS011;1736;52.068;6.968;2023-03-29T11:46:51;11.30;;;7.17;;
3443;SDS011;1736;52.068;6.968;2023-03-29T11:49:23;8.73;;;7.07;;
3443;SDS011;1736;52.068;6.968;2023-03-29T11:51:55;8.43;;;6.90;;
3443;SDS011;1736;52.068;6.968;2023-03-29T11:54:27;8.20;;;6.50;;
3443;SDS011;1736;52.068;6.968;2023-03-29T11:57:01;13.27;;;7.70;;
3443;SDS011;1736;52.068;6.968;2023-03-29T11:59:33;11.80;;;6.50;;
3443;SDS011;1736;52.068;6.968;2023-03-29T12:02:08;13.13;;;6.70;;
3443;SDS011;1736;52.068;6.968;2023-03-29T12:04:40;7.93;;;6.30;;
3443;SDS011;1736;52.068;6.968;2023-03-29T12:07:12;9.80;;;6.07;;
3443;SDS011;1736;52.068;6.968;2023-03-29T12:09:42;8.20;;;5.50;;
3443;SDS011;1736;52.068;6.968;2023-03-29T12:12:16;8.67;;;6.70;;
3443;SDS011;1736;52.068;6.968;2023-03-29T12:14:50;6.60;;;5.27;;
3443;SDS011;1736;52.068;6.968;2023-03-29T12:17:23;10.13;;;5.83;;
3443;SDS011;1736;52.068;6.968;2023-03-29T12:19:59;7.13;;;5.60;;
3443;SDS011;1736;52.068;6.968;2023-03-29T12:22:30;9.23;;;6.40;;
3443;SDS011;1736;52.068;6.968;2023-03-29T12:24:57;9.73;;;6.50;;
3443;SDS011;1736;52.068;6.968;2023-03-29T12:27:28;10.20;;;6.30;;
3443;SDS011;1736;52.068;6.968;2023-03-29T12:30:12;11.27;;;6.33;;
3443;SDS011;1736;52.068;6.968;2023-03-29T12:32:50;18.50;;;6.67;;
3443;SDS011;1736;52.068;6.968;2023-03-29T12:35:29;8.73;;;6.37;;
3443;SDS011;1736;52.068;6.968;2023-03-29T12:38:08;11.43;;;6.77;;
3443;SDS011;1736;52.068;6.968;2023-03-29T12:40:40;12.53;;;6.20;;
3443;SDS011;1736;52.068;6.968;2023-03-29T12:43:14;10.47;;;6.57;;
3443;SDS011;1736;52.068;6.968;2023-03-29T12:45:45;8.50;;;6.40;;
3443;SDS011;1736;52.068;6.968;2023-03-29T12:48:14;5.80;;;5.27;;
3443;SDS011;1736;52.068;6.968;2023-03-29T12:50:43;10.27;;;6.20;;
3443;SDS011;1736;52.068;6.968;2023-03-29T12:53:15;9.50;;;6.17;;
3443;SDS011;1736;52.068;6.968;2023-03-29T12:55:48;8.80;;;6.80;;
3443;SDS011;1736;52.068;6.968;2023-03-29T12:58:35;10.33;;;6.37;;
3443;SDS011;1736;52.068;6.968;2023-03-29T13:01:08;13.03;;;6.30;;
3443;SDS011;1736;52.068;6.968;2023-03-29T13:03:46;9.43;;;6.10;;
3443;SDS011;1736;52.068;6.968;2023-03-29T13:06:25;12.03;;;6.47;;
3443;SDS011;1736;52.068;6.968;2023-03-29T13:08:59;11.43;;;6.63;;
3443;SDS011;1736;52.068;6.968;2023-03-29T13:11:30;8.53;;;6.50;;
3443;SDS011;1736;52.068;6.968;2023-03-29T13:14:00;11.60;;;7.00;;
3443;SDS011;1736;52.068;6.968;2023-03-29T13:16:36;15.87;;;6.90;;
3443;SDS011;1736;52.068;6.968;2023-03-29T13:19:09;15.20;;;8.43;;
3443;SDS011;1736;52.068;6.968;2023-03-29T13:21:48;10.30;;;7.23;;
3443;SDS011;1736;52.068;6.968;2023-03-29T13:27:20;9.43;;;6.57;;
3443;SDS011;1736;52.068;6.968;2023-03-29T13:30:01;7.83;;;6.23;;
3443;SDS011;1736;52.068;6.968;2023-03-29T13:32:43;8.03;;;6.17;;
3443;SDS011;1736;52.068;6.968;2023-03-29T13:35:21;11.00;;;6.40;;
3443;SDS011;1736;52.068;6.968;2023-03-29T13:38:02;6.87;;;5.60;;
3443;SDS011;1736;52.068;6.968;2023-03-29T13:40:42;35.20;;;6.17;;
3443;SDS011;1736;52.068;6.968;2023-03-29T13:43:18;7.50;;;5.33;;
3443;SDS011;1736;52.068;6.968;2023-03-29T13:46:01;7.60;;;5.80;;
3443;SDS011;1736;52.068;6.968;2023-03-29T13:48:31;6.77;;;5.40;;
3443;SDS011;1736;52.068;6.968;2023-03-29T13:51:18;10.27;;;5.30;;
3443;SDS011;1736;52.068;6.968;2023-03-29T13:53:50;7.47;;;5.50;;
3443;SDS011;1736;52.068;6.968;2023-03-29T13:56:21;10.70;;;5.97;;
3443;SDS011;1736;52.068;6.968;2023-03-29T13:58:52;7.00;;;5.40;;
3443;SDS011;1736;52.068;6.968;2023-03-29T14:01:26;10.10;;;5.77;;
3443;SDS011;1736;52.068;6.968;2023-03-29T14:03:57;8.00;;;5.70;;
3443;SDS011;1736;52.068;6.968;2023-03-29T14:06:25;9.77;;;5.77;;
3443;SDS011;1736;52.068;6.968;2023-03-29T14:08:57;7.37;;;5.40;;
3443;SDS011;1736;52.068;6.968;2023-03-29T14:11:28;7.23;;;6.00;;
3443;SDS011;1736;52.068;6.968;2023-03-29T14:13:56;9.73;;;6.30;;
3443;SDS011;1736;52.068;6.968;2023-03-29T14:16:26;13.90;;;5.50;;
3443;SDS011;1736;52.068;6.968;2023-03-29T14:18:57;9.73;;;5.83;;
3443;SDS011;1736;52.068;6.968;2023-03-29T14:21:24;9.07;;;5.87;;
3443;SDS011;1736;52.068;6.968;2023-03-29T14:23:53;7.53;;;5.80;;
3443;SDS011;1736;52.068;6.968;2023-03-29T14:26:21;8.13;;;5.20;;
3443;SDS011;1736;52.068;6.968;2023-03-29T14:28:50;6.27;;;5.17;;
3443;SDS011;1736;52.068;6.968;2023-03-29T14:31:18;8.47;;;5.37;;
3443;SDS011;1736;52.068;6.968;2023-03-29T14:33:50;10.20;;;5.97;;
3443;SDS011;1736;52.068;6.968;2023-03-29T14:36:17;7.60;;;6.00;;
3443;SDS011;1736;52.068;6.968;2023-03-29T14:38:46;8.70;;;5.80;;
3443;SDS011;1736;52.068;6.968;2023-03-29T14:41:14;9.70;;;5.67;;
3443;SDS011;1736;52.068;6.968;2023-03-29T14:43:41;8.63;;;5.30;;
3443;SDS011;1736;52.068;6.968;2023-03-29T14:46:08;8.23;;;5.50;;
3443;SDS011;1736;52.068;6.968;2023-03-29T14:48:36;7.30;;;5.50;;
3443;SDS011;1736;52.068;6.968;2023-03-29T14:51:05;6.50;;;5.40;;
3443;SDS011;1736;52.068;6.968;2023-03-29T14:53:32;9.97;;;5.30;;
3443;SDS011;1736;52.068;6.968;2023-03-29T14:56:02;6.90;;;5.13;;
3443;SDS011;1736;52.068;6.968;2023-03-29T14:58:31;7.23;;;5.93;;
3443;SDS011;1736;52.068;6.968;2023-03-29T15:01:02;5.57;;;4.97;;
3443;SDS011;1736;52.068;6.968;2023-03-29T15:03:40;8.50;;;4.93;;
3443;SDS011;1736;52.068;6.968;2023-03-29T15:06:09;8.03;;;5.03;;
3443;SDS011;1736;52.068;6.968;2023-03-29T15:08:37;6.63;;;4.90;;
3443;SDS011;1736;52.068;6.968;2023-03-29T15:11:09;11.83;;;5.00;;
3443;SDS011;1736;52.068;6.968;2023-03-29T15:13:39;5.87;;;4.53;;
3443;SDS011;1736;52.068;6.968;2023-03-29T15:16:07;6.17;;;4.57;;
3443;SDS011;1736;52.068;6.968;2023-03-29T15:18:37;5.70;;;4.90;;
3443;SDS011;1736;52.068;6.968;2023-03-29T15:21:05;5.37;;;4.50;;
3443;SDS011;1736;52.068;6.968;2023-03-29T15:23:35;7.00;;;4.70;;
3443;SDS011;1736;52.068;6.968;2023-03-29T15:26:07;6.83;;;4.77;;
3443;SDS011;1736;52.068;6.968;2023-03-29T15:28:45;5.80;;;4.50;;
3443;SDS011;1736;52.068;6.968;2023-03-29T15:31:15;7.47;;;4.90;;